createdAt,value
2019-04-27T00:00:03.627Z,14.67
2019-04-27T00:02:55.838Z,15.97
2019-04-27T00:05:32.267Z,19.40
2019-04-27T00:08:03.758Z,17.60
2019-04-27T00:10:33.785Z,17.37
2019-04-27T00:13:05.663Z,17.60
2019-04-27T00:15:36.717Z,16.67
2019-04-27T00:18:09.410Z,17.80
2019-04-27T00:20:38.510Z,16.63
2019-04-27T00:23:08.555Z,17.43
2019-04-27T00:25:36.965Z,16.70
2019-04-27T00:28:05.608Z,17.00
2019-04-27T00:30:35.610Z,17.90
2019-04-27T00:33:05.424Z,18.37
2019-04-27T00:35:38.512Z,17.43
2019-04-27T00:38:17.744Z,17.23
2019-04-27T00:40:47.775Z,18.70
2019-04-27T00:43:16.166Z,18.57
2019-04-27T00:45:44.567Z,17.47
2019-04-27T00:48:13.330Z,17.67
2019-04-27T00:50:41.842Z,21.97
2019-04-27T00:53:10.235Z,19.03
2019-04-27T00:55:40.288Z,17.83
2019-04-27T00:58:19.085Z,19.43
2019-04-27T01:00:58.043Z,19.47
2019-04-27T01:03:30.843Z,19.40
2019-04-27T01:05:59.482Z,17.60
2019-04-27T01:08:27.887Z,20.60
2019-04-27T01:10:56.388Z,18.43
2019-04-27T01:13:24.794Z,18.97
2019-04-27T01:15:54.155Z,21.90
2019-04-27T01:18:22.604Z,19.47
2019-04-27T01:20:50.994Z,21.67
2019-04-27T01:23:19.415Z,18.93
2019-04-27T01:26:05.641Z,21.07
2019-04-27T01:28:35.671Z,19.73
2019-04-27T01:31:05.746Z,18.23
2019-04-27T01:33:34.150Z,17.83
2019-04-27T01:36:02.560Z,19.90
2019-04-27T01:38:30.965Z,18.97
2019-04-27T01:41:00.613Z,18.17
2019-04-27T01:43:30.250Z,20.53
2019-04-27T01:46:01.013Z,19.07
2019-04-27T01:48:30.560Z,19.77
2019-04-27T01:50:59.417Z,20.20
2019-04-27T01:53:28.912Z,19.10
2019-04-27T01:55:59.217Z,19.57
2019-04-27T01:58:29.315Z,21.83
2019-04-27T02:01:11.381Z,20.87
2019-04-27T02:03:41.415Z,18.77
2019-04-27T02:06:09.968Z,19.67
2019-04-27T02:08:40.236Z,22.13
2019-04-27T02:11:09.235Z,21.73
2019-04-27T02:13:38.901Z,22.13
2019-04-27T02:16:09.000Z,22.07
2019-04-27T02:18:39.634Z,25.13
2019-04-27T02:21:09.118Z,25.60
2019-04-27T02:23:39.279Z,22.63
2019-04-27T02:26:08.619Z,25.63
2019-04-27T02:28:47.459Z,24.17
2019-04-27T02:31:20.413Z,24.07
2019-04-27T02:33:53.285Z,26.40
2019-04-27T02:36:21.759Z,26.57
2019-04-27T02:38:50.173Z,28.47
2019-04-27T02:41:19.898Z,26.63
2019-04-27T02:43:50.125Z,28.03
2019-04-27T02:46:20.005Z,28.83
2019-04-27T02:48:58.596Z,26.33
2019-04-27T02:51:36.516Z,31.37
2019-04-27T02:54:05.073Z,29.70
2019-04-27T02:56:33.498Z,30.87
2019-04-27T02:59:01.891Z,30.23
2019-04-27T03:01:31.936Z,32.97
2019-04-27T03:04:00.681Z,33.33
2019-04-27T03:06:29.968Z,30.53
2019-04-27T03:09:00.425Z,31.67
2019-04-27T03:11:30.715Z,31.77
2019-04-27T03:14:29.470Z,30.47
2019-04-27T03:17:04.780Z,36.20
2019-04-27T03:19:40.511Z,35.83
2019-04-27T03:22:19.155Z,36.50
2019-04-27T03:25:00.644Z,35.17
2019-04-27T03:27:40.636Z,34.17
2019-04-27T03:30:12.516Z,37.10
2019-04-27T03:32:43.195Z,37.50
2019-04-27T03:35:13.114Z,36.77
2019-04-27T03:37:42.196Z,38.10
2019-04-27T03:40:10.810Z,37.87
2019-04-27T03:42:40.847Z,40.63
2019-04-27T03:45:10.763Z,39.37
2019-04-27T03:47:40.765Z,38.80
2019-04-27T03:50:11.577Z,38.57
2019-04-27T03:52:41.711Z,37.03
2019-04-27T03:55:11.814Z,41.27
2019-04-27T03:57:50.470Z,38.13
2019-04-27T04:00:30.161Z,38.90
2019-04-27T04:03:00.578Z,39.47
2019-04-27T04:05:30.112Z,40.73
2019-04-27T04:08:00.502Z,41.03
2019-04-27T04:10:30.613Z,43.00
2019-04-27T04:13:01.641Z,38.93
2019-04-27T04:15:31.911Z,42.80
2019-04-27T04:18:00.333Z,38.93
2019-04-27T04:20:30.471Z,40.10
2019-04-27T04:23:00.176Z,42.77
2019-04-27T04:25:32.668Z,44.50
2019-04-27T04:28:00.635Z,42.17
2019-04-27T04:30:30.236Z,44.10
2019-04-27T04:32:59.909Z,42.43
2019-04-27T04:35:32.528Z,47.73
2019-04-27T04:38:00.267Z,43.67
2019-04-27T04:40:30.832Z,47.43
2019-04-27T04:43:03.443Z,53.20
2019-04-27T04:45:35.738Z,48.93
2019-04-27T04:48:05.788Z,47.10
2019-04-27T04:50:34.267Z,51.80
2019-04-27T04:53:02.683Z,50.57
2019-04-27T04:55:31.085Z,52.57
2019-04-27T04:57:59.492Z,53.63
2019-04-27T05:00:29.870Z,52.67
2019-04-27T05:02:59.515Z,52.60
2019-04-27T05:05:29.286Z,51.50
2019-04-27T05:07:58.762Z,56.17
2019-04-27T05:10:28.801Z,50.27
2019-04-27T05:12:59.075Z,51.17
2019-04-27T05:15:29.211Z,52.83
2019-04-27T05:17:59.207Z,53.27
2019-04-27T05:20:29.558Z,48.43
2019-04-27T05:22:59.417Z,50.40
2019-04-27T05:25:28.700Z,52.93
2019-04-27T05:27:57.084Z,52.43
2019-04-27T05:30:25.478Z,50.93
2019-04-27T05:32:53.891Z,49.70
2019-04-27T05:35:22.276Z,47.13
2019-04-27T05:37:50.740Z,46.73
2019-04-27T05:40:19.133Z,47.83
2019-04-27T05:42:48.917Z,45.03
2019-04-27T05:45:43.068Z,49.10
2019-04-27T05:48:13.165Z,43.17
2019-04-27T05:50:45.635Z,44.53
2019-04-27T05:53:11.707Z,46.17
2019-04-27T05:55:40.103Z,45.30
2019-04-27T05:58:09.334Z,43.30
2019-04-27T06:00:39.371Z,44.17
2019-04-27T06:03:09.062Z,44.97
2019-04-27T06:05:39.109Z,44.50
2019-04-27T06:08:08.741Z,44.13
2019-04-27T06:10:38.685Z,41.77
2019-04-27T06:13:08.447Z,42.27
2019-04-27T06:15:38.854Z,40.77
2019-04-27T06:18:07.273Z,40.43
2019-04-27T06:20:48.378Z,41.07
2019-04-27T06:23:05.773Z,38.83
2019-04-27T06:25:34.193Z,38.33
2019-04-27T06:28:02.563Z,37.43
2019-04-27T06:30:30.954Z,36.93
2019-04-27T06:32:59.526Z,35.87
2019-04-27T06:35:28.845Z,35.70
2019-04-27T06:37:58.604Z,35.50
2019-04-27T06:40:28.931Z,34.83
2019-04-27T06:42:57.167Z,32.93
2019-04-27T06:45:25.582Z,33.77
2019-04-27T06:47:53.985Z,30.10
2019-04-27T06:50:22.373Z,32.70
2019-04-27T06:52:50.772Z,31.33
2019-04-27T06:55:19.155Z,31.37
2019-04-27T07:03:59.670Z,27.40
2019-04-27T07:06:28.623Z,27.57
2019-04-27T07:08:57.033Z,29.17
2019-04-27T07:11:25.447Z,26.83
2019-04-27T07:13:53.844Z,25.00
2019-04-27T07:16:22.234Z,25.13
2019-04-27T07:18:50.624Z,23.47
2019-04-27T07:21:24.288Z,23.13
2019-04-27T07:23:59.412Z,26.03
2019-04-27T07:26:30.195Z,22.73
2019-04-27T07:28:59.631Z,23.55
2019-04-27T07:31:29.496Z,21.93
2019-04-27T07:33:59.512Z,21.07
2019-04-27T07:36:29.013Z,19.87
2019-04-27T07:38:59.662Z,22.20
2019-04-27T07:41:29.179Z,20.27
2019-04-27T07:44:02.097Z,18.27
2019-04-27T07:46:31.830Z,20.17
2019-04-27T07:49:00.197Z,17.83
2019-04-27T07:51:33.644Z,19.40
2019-04-27T07:53:58.994Z,16.57
2019-04-27T07:56:29.095Z,19.37
2019-04-27T07:58:59.394Z,17.60
2019-04-27T08:01:29.408Z,17.60
2019-04-27T08:03:59.080Z,18.70
2019-04-27T08:06:28.943Z,16.17
2019-04-27T08:08:59.178Z,16.37
2019-04-27T08:11:29.250Z,16.60
2019-04-27T08:13:58.799Z,18.32
2019-04-27T08:16:29.099Z,15.03
2019-04-27T08:18:59.809Z,15.20
2019-04-27T08:21:28.910Z,15.77
2019-04-27T08:23:58.609Z,18.37
2019-04-27T08:26:28.974Z,18.50
2019-04-27T08:28:59.012Z,18.77
2019-04-27T08:31:29.300Z,16.53
2019-04-27T08:33:58.285Z,19.23
2019-04-27T08:36:28.909Z,23.03
2019-04-27T08:38:58.861Z,26.83
2019-04-27T08:41:29.474Z,28.23
2019-04-27T08:43:58.754Z,28.43
2019-04-27T08:46:28.631Z,60.03
2019-04-27T08:48:58.717Z,32.70
2019-04-27T08:51:29.008Z,72.62
2019-04-27T08:53:59.000Z,33.60
2019-04-27T08:56:27.485Z,30.47
2019-04-27T08:58:55.883Z,29.70
2019-04-27T09:01:25.245Z,31.47
2019-04-27T09:03:53.638Z,34.27
2019-04-27T09:06:22.341Z,34.20
2019-04-27T09:08:52.383Z,29.43
2019-04-27T09:11:22.412Z,34.70
2019-04-27T09:14:01.601Z,34.00
2019-04-27T09:16:31.653Z,32.47
2019-04-27T09:19:10.681Z,31.50
2019-04-27T09:22:10.325Z,28.27
2019-04-27T09:24:29.227Z,29.63
2019-04-27T09:26:59.508Z,28.27
2019-04-27T09:29:29.591Z,28.00
2019-04-27T09:31:59.607Z,27.03
2019-04-27T09:34:28.178Z,26.07
2019-04-27T09:36:56.716Z,24.40
2019-04-27T09:39:26.470Z,21.13
2019-04-27T09:41:57.020Z,20.10
2019-04-27T09:44:26.696Z,20.43
2019-04-27T09:46:56.079Z,14.07
2019-04-27T09:49:26.258Z,13.17
2019-04-27T09:51:55.715Z,18.90
2019-04-27T09:54:24.154Z,19.30
2019-04-27T09:56:52.544Z,20.20
2019-04-27T09:59:20.975Z,18.67
2019-04-27T10:01:49.369Z,18.40
2019-04-27T10:04:17.756Z,18.63
2019-04-27T10:06:48.582Z,21.57
2019-04-27T10:09:16.268Z,18.27
2019-04-27T10:11:44.657Z,20.37
2019-04-27T10:14:13.049Z,17.27
2019-04-27T10:16:41.442Z,19.10
2019-04-27T10:19:09.834Z,19.53
2019-04-27T10:21:38.305Z,21.00
2019-04-27T10:24:06.770Z,19.97
2019-04-27T10:26:36.200Z,19.60
2019-04-27T10:29:06.197Z,18.23
2019-04-27T10:31:34.763Z,18.20
2019-04-27T10:34:03.150Z,17.70
2019-04-27T10:36:40.636Z,18.80
2019-04-27T10:39:13.458Z,18.63
2019-04-27T10:41:42.117Z,17.67
2019-04-27T10:44:10.660Z,18.90
2019-04-27T10:46:39.123Z,14.77
2019-04-27T10:49:07.955Z,14.57
2019-04-27T10:51:36.495Z,14.93
2019-04-27T10:54:06.829Z,14.07
2019-04-27T10:56:36.117Z,14.53
2019-04-27T10:59:06.521Z,14.47
2019-04-27T11:01:36.055Z,14.77
2019-04-27T11:04:09.594Z,15.50
2019-04-27T11:06:45.761Z,15.43
2019-04-27T11:09:16.201Z,15.37
2019-04-27T11:11:46.310Z,15.33
2019-04-27T11:14:15.950Z,15.80
2019-04-27T11:16:45.945Z,14.00
2019-04-27T11:19:16.730Z,14.27
2019-04-27T11:21:44.784Z,13.10
2019-04-27T11:24:13.186Z,12.80
2019-04-27T11:26:41.574Z,12.80
2019-04-27T11:29:09.982Z,12.47
2019-04-27T11:31:38.529Z,9.47
2019-04-27T11:34:06.985Z,6.60
2019-04-27T11:36:37.007Z,7.07
2019-04-27T11:39:08.467Z,10.07
2019-04-27T11:41:36.858Z,8.83
2019-04-27T11:44:05.244Z,9.07
2019-04-27T11:46:33.681Z,9.20
2019-04-27T11:49:02.066Z,6.90
2019-04-27T11:51:30.448Z,5.67
2019-04-27T11:53:58.832Z,7.77
2019-04-27T11:56:27.491Z,5.10
2019-04-27T11:58:56.102Z,4.60
2019-04-27T12:01:24.553Z,6.20
2019-04-27T12:03:52.936Z,4.87
2019-04-27T12:06:21.315Z,6.13
2019-04-27T12:08:49.709Z,5.80
2019-04-27T12:11:18.089Z,5.10
2019-04-27T12:13:46.493Z,4.63
2019-04-27T12:16:15.645Z,4.90
2019-04-27T12:18:48.863Z,5.10
2019-04-27T12:21:15.162Z,4.67
2019-04-27T12:23:43.556Z,4.93
2019-04-27T12:26:13.584Z,5.90
2019-04-27T12:28:52.561Z,3.70
2019-04-27T12:31:25.840Z,4.40
2019-04-27T12:33:55.922Z,4.13
2019-04-27T12:36:25.810Z,4.10
2019-04-27T12:38:54.356Z,3.40
2019-04-27T12:41:22.729Z,3.17
2019-04-27T12:43:51.106Z,3.40
2019-04-27T12:46:19.496Z,2.85
2019-04-27T12:48:47.947Z,3.60
2019-04-27T12:51:16.403Z,3.17
2019-04-27T12:53:52.847Z,5.87
2019-04-27T12:56:21.089Z,5.03
2019-04-27T12:58:54.022Z,4.63
2019-04-27T13:01:27.065Z,8.33
2019-04-27T13:03:58.926Z,7.60
2019-04-27T13:06:25.657Z,4.33
2019-04-27T13:08:55.703Z,3.80
2019-04-27T13:11:24.302Z,3.93
2019-04-27T13:13:52.700Z,2.80
2019-04-27T13:16:21.085Z,3.03
2019-04-27T13:18:49.468Z,2.33
2019-04-27T13:21:20.789Z,0.80
2019-04-27T13:24:00.832Z,2.50
2019-04-27T13:26:18.076Z,1.80
2019-04-27T13:28:46.774Z,2.10
2019-04-27T13:31:15.692Z,2.53
2019-04-27T13:33:44.156Z,1.50
2019-04-27T13:36:12.568Z,2.13
2019-04-27T13:38:40.956Z,3.10
2019-04-27T13:41:10.021Z,2.10
2019-04-27T13:43:39.243Z,2.73
2019-04-27T13:46:09.711Z,3.73
2019-04-27T13:48:56.246Z,3.60
2019-04-27T13:51:41.160Z,3.10
2019-04-27T13:54:18.743Z,3.50
2019-04-27T13:56:39.652Z,2.80
2019-04-27T13:59:08.109Z,3.40
2019-04-27T14:01:36.571Z,2.63
2019-04-27T14:04:06.866Z,2.43
2019-04-27T14:06:35.195Z,1.73
2019-04-27T14:09:05.091Z,1.47
2019-04-27T14:11:33.494Z,2.20
2019-04-27T14:14:01.961Z,1.50
2019-04-27T14:16:30.363Z,2.83
2019-04-27T14:18:59.434Z,4.70
2019-04-27T14:21:29.528Z,4.40
2019-04-27T14:23:58.616Z,2.57
2019-04-27T14:26:28.458Z,2.60
2019-04-27T14:28:58.338Z,2.50
2019-04-27T14:31:26.826Z,2.07
2019-04-27T14:33:55.204Z,3.20
2019-04-27T14:36:23.597Z,3.13
2019-04-27T14:38:51.987Z,3.90
2019-04-27T14:41:20.396Z,3.03
2019-04-27T14:44:05.027Z,4.07
2019-04-27T14:46:18.859Z,2.40
2019-04-27T14:48:47.246Z,2.97
2019-04-27T14:51:15.627Z,2.70
2019-04-27T14:53:44.014Z,2.20
2019-04-27T14:56:12.395Z,1.83
2019-04-27T14:58:40.789Z,4.60
2019-04-27T15:01:09.167Z,5.53
2019-04-27T15:03:37.544Z,2.80
2019-04-27T15:06:05.941Z,4.77
2019-04-27T15:08:34.330Z,3.03
2019-04-27T15:11:04.175Z,0.80
2019-04-27T15:13:32.834Z,1.37
2019-04-27T15:16:02.604Z,1.53
2019-04-27T15:18:34.659Z,0.70
2019-04-27T15:21:03.755Z,1.87
2019-04-27T15:23:32.308Z,1.37
2019-04-27T15:26:00.696Z,1.30
2019-04-27T15:28:32.054Z,0.33
2019-04-27T15:31:02.113Z,0.90
2019-04-27T15:33:51.459Z,0.68
2019-04-27T15:36:23.073Z,1.20
2019-04-27T15:39:09.669Z,0.70
2019-04-27T15:41:39.755Z,0.70
2019-04-27T15:44:09.388Z,0.47
2019-04-27T15:46:39.072Z,0.83
2019-04-27T15:49:11.274Z,0.80
2019-04-27T15:51:38.278Z,0.50
2019-04-27T15:54:06.786Z,2.03
2019-04-27T15:56:35.528Z,2.27
2019-04-27T15:59:05.425Z,1.00
2019-04-27T16:01:35.708Z,2.50
2019-04-27T16:04:07.694Z,0.70
2019-04-27T16:06:34.544Z,1.23
2019-04-27T16:09:02.927Z,1.03
2019-04-27T16:11:31.339Z,0.70
2019-04-27T16:14:03.012Z,1.23
2019-04-27T16:16:33.471Z,1.03
2019-04-27T16:19:03.621Z,0.97
2019-04-27T16:21:31.596Z,1.87
2019-04-27T16:24:00.048Z,0.83
2019-04-27T16:26:28.595Z,1.37
2019-04-27T16:28:58.102Z,0.70
2019-04-27T16:31:31.465Z,2.20
2019-04-27T16:33:59.146Z,0.63
2019-04-27T16:36:26.705Z,1.27
2019-04-27T16:38:56.734Z,1.30
2019-04-27T16:41:25.188Z,0.97
2019-04-27T16:43:53.646Z,2.23
2019-04-27T16:46:22.115Z,3.33
2019-04-27T16:48:50.506Z,2.00
2019-04-27T16:51:18.882Z,1.97
2019-04-27T16:53:47.579Z,3.47
2019-04-27T16:56:18.577Z,1.93
2019-04-27T16:58:51.111Z,1.90
2019-04-27T17:01:20.329Z,1.27
2019-04-27T17:03:48.718Z,2.70
2019-04-27T17:06:19.097Z,1.93
2019-04-27T17:08:49.465Z,3.87
2019-04-27T17:11:19.546Z,1.50
2019-04-27T17:13:51.986Z,3.37
2019-04-27T17:16:31.222Z,1.70
2019-04-27T17:19:04.940Z,2.00
2019-04-27T17:21:28.886Z,0.97
2019-04-27T17:24:02.807Z,3.37
2019-04-27T17:26:29.135Z,1.70
2019-04-27T17:29:11.083Z,1.70
2019-04-27T17:31:38.165Z,1.97
2019-04-27T17:34:08.174Z,2.23
2019-04-27T17:36:38.506Z,2.17
2019-04-27T17:39:10.643Z,3.30
2019-04-27T17:41:42.141Z,1.77
2019-04-27T17:44:12.670Z,2.73
2019-04-27T17:46:42.743Z,3.73
2019-04-27T17:49:09.445Z,1.80
2019-04-27T17:51:42.957Z,1.40
2019-04-27T17:54:11.363Z,1.77
2019-04-27T17:56:48.255Z,2.40
2019-04-27T17:59:11.978Z,5.87
2019-04-27T18:01:38.865Z,2.47
2019-04-27T18:04:10.407Z,3.87
2019-04-27T18:06:39.038Z,2.70
2019-04-27T18:09:09.842Z,1.00
2019-04-27T18:11:38.501Z,2.43
2019-04-27T18:14:11.146Z,2.20
2019-04-27T18:16:38.047Z,2.63
2019-04-27T18:19:11.239Z,2.63
2019-04-27T18:21:39.858Z,3.03
2019-04-27T18:24:09.879Z,1.60
2019-04-27T18:26:49.258Z,0.60
2019-04-27T18:29:12.725Z,1.40
2019-04-27T18:31:41.111Z,1.13
2019-04-27T18:34:15.241Z,1.33
2019-04-27T18:36:43.896Z,1.80
2019-04-27T18:39:13.450Z,2.60
2019-04-27T18:41:44.428Z,1.37
2019-04-27T18:44:11.194Z,2.03
2019-04-27T18:46:39.818Z,1.30
2019-04-27T18:49:12.553Z,3.50
2019-04-27T18:51:42.575Z,1.70
2019-04-27T18:54:10.969Z,1.37
2019-04-27T18:56:41.581Z,1.53
2019-04-27T18:59:09.577Z,1.00
2019-04-27T19:01:37.960Z,2.57
2019-04-27T19:04:08.539Z,3.10
2019-04-27T19:06:36.467Z,1.37
2019-04-27T19:09:08.314Z,1.40
2019-04-27T19:11:38.247Z,3.47
2019-04-27T19:14:08.341Z,2.85
2019-04-27T19:16:38.388Z,3.30
2019-04-27T19:19:08.734Z,1.80
2019-04-27T19:21:39.113Z,1.70
2019-04-27T19:24:08.862Z,4.03
2019-04-27T19:26:48.513Z,2.30
2019-04-27T19:29:18.943Z,2.37
2019-04-27T19:31:54.657Z,1.77
2019-04-27T19:34:23.043Z,2.93
2019-04-27T19:36:59.281Z,1.77
2019-04-27T19:39:28.574Z,3.27
2019-04-27T19:42:01.388Z,4.47
2019-04-27T19:44:28.974Z,2.17
2019-04-27T19:46:57.510Z,2.53
2019-04-27T19:49:32.715Z,3.83
2019-04-27T19:52:01.178Z,3.83
2019-04-27T19:54:30.241Z,2.53
2019-04-27T19:57:04.619Z,2.83
2019-04-27T19:59:46.178Z,2.53
2019-04-27T20:02:16.205Z,2.70
2019-04-27T20:04:45.853Z,3.40
2019-04-27T20:07:14.243Z,3.63
2019-04-27T20:09:44.265Z,2.60
2019-04-27T20:12:13.774Z,2.67
2019-04-27T20:14:57.321Z,2.83
2019-04-27T20:17:31.111Z,3.40
2019-04-27T20:19:59.996Z,2.27
2019-04-27T20:22:28.384Z,2.90
2019-04-27T20:24:56.764Z,4.13
2019-04-27T20:27:25.158Z,3.13
2019-04-27T20:29:53.544Z,3.00
2019-04-27T20:32:21.993Z,2.77
2019-04-27T20:34:51.296Z,2.67
2019-04-27T20:37:20.996Z,2.80
2019-04-27T20:39:51.251Z,4.27
2019-04-27T20:42:21.108Z,4.07
2019-04-27T20:44:51.418Z,3.93
2019-04-27T20:47:19.942Z,4.47
2019-04-27T20:49:48.338Z,3.77
2019-04-27T20:52:18.356Z,4.23
2019-04-27T20:54:46.736Z,4.70
2019-04-27T20:57:15.109Z,4.10
2019-04-27T20:59:43.494Z,3.65
2019-04-27T21:02:29.590Z,4.30
2019-04-27T21:05:02.599Z,4.30
2019-04-27T21:07:38.547Z,3.40
2019-04-27T21:10:08.058Z,3.30
2019-04-27T21:12:36.433Z,3.60
2019-04-27T21:15:05.557Z,4.03
2019-04-27T21:17:33.934Z,5.03
2019-04-27T21:20:02.315Z,3.80
2019-04-27T21:22:31.475Z,2.80
2019-04-27T21:25:01.516Z,3.60
2019-04-27T21:27:31.811Z,4.97
2019-04-27T21:30:02.569Z,4.03
2019-04-27T21:32:30.429Z,3.03
2019-04-27T21:34:58.809Z,4.70
2019-04-27T21:37:27.185Z,6.03
2019-04-27T21:40:10.489Z,2.93
2019-04-27T21:42:41.087Z,4.33
2019-04-27T21:45:11.243Z,3.33
2019-04-27T21:47:41.357Z,3.00
2019-04-27T21:50:11.969Z,2.20
2019-04-27T21:52:42.024Z,3.33
2019-04-27T21:55:12.118Z,4.07
2019-04-27T21:57:40.999Z,3.03
2019-04-27T22:00:16.712Z,6.03
2019-04-27T22:02:45.105Z,4.37
2019-04-27T22:05:13.475Z,4.00
2019-04-27T22:07:41.912Z,4.07
2019-04-27T22:10:10.686Z,3.87
2019-04-27T22:12:39.057Z,4.13
2019-04-27T22:15:07.875Z,3.53
2019-04-27T22:17:36.258Z,2.90
2019-04-27T22:20:07.247Z,4.60
2019-04-27T22:22:37.270Z,3.93
2019-04-27T22:25:08.151Z,5.10
2019-04-27T22:27:36.612Z,4.87
2019-04-27T22:30:06.995Z,2.97
2019-04-27T22:32:35.460Z,3.93
2019-04-27T22:35:04.742Z,4.53
2019-04-27T22:37:33.121Z,4.00
2019-04-27T22:40:05.793Z,3.73
2019-04-27T22:42:51.524Z,6.43
2019-04-27T22:45:21.599Z,6.13
2019-04-27T22:47:51.244Z,5.33
2019-04-27T22:50:21.058Z,4.30
2019-04-27T22:52:49.489Z,6.27
2019-04-27T22:55:17.875Z,5.67
2019-04-27T22:57:47.895Z,6.07
2019-04-27T23:00:18.380Z,3.63
2019-04-27T23:02:48.392Z,5.40
2019-04-27T23:05:16.795Z,5.80
2019-04-27T23:07:45.174Z,6.23
2019-04-27T23:10:13.792Z,4.80
2019-04-27T23:12:42.172Z,5.93
2019-04-27T23:15:12.339Z,5.10
2019-04-27T23:17:48.183Z,4.50
2019-04-27T23:20:16.566Z,6.17
2019-04-27T23:22:44.932Z,5.33
2019-04-27T23:25:13.312Z,6.23
2019-04-27T23:27:41.688Z,7.73
2019-04-27T23:30:11.308Z,4.10
2019-04-27T23:32:41.473Z,5.93
2019-04-27T23:35:10.200Z,6.17
2019-04-27T23:37:38.545Z,3.40
2019-04-27T23:40:07.066Z,4.17
2019-04-27T23:42:35.451Z,7.07
2019-04-27T23:45:05.396Z,6.40
2019-04-27T23:47:33.781Z,6.80
2019-04-27T23:50:02.156Z,3.30
2019-04-27T23:52:37.981Z,4.83
2019-04-27T23:55:06.426Z,4.53
2019-04-27T23:57:34.807Z,6.47
